createdAt,value
2023-01-28T00:01:55.356Z,27.40
2023-01-28T00:04:22.293Z,24.00
2023-01-28T00:06:49.117Z,20.65
2023-01-28T00:09:16.013Z,23.88
2023-01-28T00:11:42.765Z,27.90
2023-01-28T00:14:12.498Z,27.77
2023-01-28T00:16:39.765Z,21.75
2023-01-28T00:19:06.580Z,21.25
2023-01-28T00:21:33.466Z,23.55
2023-01-28T00:24:00.465Z,22.92
2023-01-28T00:26:27.497Z,25.70
2023-01-28T00:28:54.725Z,24.60
2023-01-28T00:31:25.346Z,24.67
2023-01-28T00:33:53.343Z,22.50
2023-01-28T00:36:22.947Z,22.38
2023-01-28T00:38:56.121Z,24.05
2023-01-28T00:41:25.964Z,22.75
2023-01-28T00:43:53.677Z,26.17
2023-01-28T00:46:22.979Z,29.60
2023-01-28T00:48:50.039Z,19.58
2023-01-28T00:51:20.368Z,21.83
2023-01-28T00:53:47.586Z,23.92
2023-01-28T00:56:17.926Z,17.60
2023-01-28T00:58:45.079Z,20.90
2023-01-28T01:01:18.729Z,22.58
2023-01-28T01:03:46.612Z,22.52
2023-01-28T01:06:15.860Z,19.77
2023-01-28T01:08:50.599Z,20.70
2023-01-28T01:11:18.328Z,23.00
2023-01-28T01:13:45.091Z,21.73
2023-01-28T01:16:16.751Z,22.08
2023-01-28T01:18:43.926Z,24.45
2023-01-28T01:21:21.541Z,22.35
2023-01-28T01:23:48.873Z,21.77
2023-01-28T01:26:16.180Z,23.17
2023-01-28T01:28:43.238Z,23.40
2023-01-28T01:31:18.313Z,26.08
2023-01-28T01:33:48.670Z,18.75
2023-01-28T01:36:18.641Z,22.75
2023-01-28T01:38:45.509Z,20.35
2023-01-28T01:41:30.272Z,23.75
2023-01-28T01:44:04.076Z,20.98
2023-01-28T01:46:49.565Z,22.60
2023-01-28T01:49:23.713Z,18.27
2023-01-28T01:52:16.595Z,16.17
2023-01-28T01:54:47.672Z,19.75
2023-01-28T01:57:23.424Z,18.88
2023-01-28T01:59:51.212Z,20.90
2023-01-28T02:02:18.272Z,20.83
2023-01-28T02:04:45.866Z,21.05
2023-01-28T02:07:16.629Z,23.08
2023-01-28T02:09:43.465Z,22.75
2023-01-28T02:12:20.953Z,19.48
2023-01-28T02:15:03.624Z,23.67
2023-01-28T02:17:31.627Z,23.08
2023-01-28T02:20:05.271Z,19.27
2023-01-28T02:22:56.164Z,18.10
2023-01-28T02:25:41.331Z,21.80
2023-01-28T02:28:26.023Z,24.02
2023-01-28T02:31:25.073Z,22.02
2023-01-28T02:34:16.680Z,22.23
2023-01-28T02:36:55.520Z,21.35
2023-01-28T02:39:32.091Z,24.40
2023-01-28T02:42:16.519Z,19.77
2023-01-28T02:44:43.705Z,18.83
2023-01-28T02:47:31.715Z,23.75
2023-01-28T02:50:03.828Z,17.52
2023-01-28T02:53:13.717Z,20.58
2023-01-28T02:56:09.761Z,22.02
2023-01-28T02:58:48.318Z,20.20
2023-01-28T03:01:43.310Z,19.27
2023-01-28T03:04:21.905Z,22.20
2023-01-28T03:06:53.711Z,20.17
2023-01-28T03:09:24.482Z,23.92
2023-01-28T03:12:20.876Z,21.20
2023-01-28T03:15:14.939Z,20.02
2023-01-28T03:18:35.751Z,17.80
2023-01-28T03:21:41.585Z,20.23
2023-01-28T03:24:40.658Z,20.25
2023-01-28T03:27:38.648Z,19.67
2023-01-28T03:30:36.078Z,19.55
2023-01-28T03:33:24.096Z,19.15
2023-01-28T03:36:09.378Z,17.55
2023-01-28T03:41:12.752Z,17.17
2023-01-28T03:43:39.890Z,21.15
2023-01-28T03:46:06.841Z,20.23
2023-01-28T03:48:33.691Z,20.08
2023-01-28T03:51:00.618Z,23.60
2023-01-28T03:53:28.368Z,17.55
2023-01-28T03:55:56.848Z,18.95
2023-01-28T03:58:27.623Z,19.05
2023-01-28T04:00:54.555Z,17.02
2023-01-28T04:03:22.479Z,18.92
2023-01-28T04:06:02.473Z,17.27
2023-01-28T04:08:29.710Z,18.67
2023-01-28T04:10:56.793Z,18.00
2023-01-28T04:13:23.974Z,16.80
2023-01-28T04:15:51.595Z,19.35
2023-01-28T04:18:19.735Z,19.45
2023-01-28T04:20:49.251Z,20.08
2023-01-28T04:23:16.196Z,22.25
2023-01-28T04:25:42.941Z,19.83
2023-01-28T04:28:09.885Z,19.27
2023-01-28T04:30:36.702Z,18.48
2023-01-28T04:33:03.511Z,17.75
2023-01-28T04:35:30.443Z,17.38
2023-01-28T04:37:57.202Z,17.15
2023-01-28T04:40:23.966Z,15.82
2023-01-28T04:42:55.427Z,17.80
2023-01-28T04:45:23.135Z,16.67
2023-01-28T04:47:50.358Z,16.10
2023-01-28T04:50:17.337Z,17.48
2023-01-28T04:52:44.488Z,15.75
2023-01-28T04:55:11.834Z,17.98
2023-01-28T04:57:38.943Z,15.10
2023-01-28T05:00:06.619Z,15.60
2023-01-28T05:02:33.438Z,15.68
2023-01-28T05:05:01.740Z,13.77
2023-01-28T05:07:28.620Z,16.48
2023-01-28T05:09:55.381Z,16.67
2023-01-28T05:12:22.382Z,17.65
2023-01-28T05:14:49.130Z,15.07
2023-01-28T05:17:16.124Z,18.27
2023-01-28T05:19:43.754Z,13.88
2023-01-28T05:22:10.536Z,14.63
2023-01-28T05:24:37.381Z,17.95
2023-01-28T05:27:04.388Z,13.60
2023-01-28T05:29:31.425Z,12.70
2023-01-28T05:31:58.265Z,15.20
2023-01-28T05:34:25.343Z,14.02
2023-01-28T05:36:52.442Z,12.18
2023-01-28T05:39:19.531Z,13.85
2023-01-28T05:41:46.335Z,12.85
2023-01-28T05:44:13.112Z,13.35
2023-01-28T05:46:45.447Z,11.20
2023-01-28T05:49:13.742Z,12.00
2023-01-28T05:51:41.378Z,11.57
2023-01-28T05:54:09.245Z,11.77
2023-01-28T05:56:36.794Z,11.70
2023-01-28T05:59:05.545Z,14.95
2023-01-28T06:01:32.746Z,11.90
2023-01-28T06:04:00.628Z,10.93
2023-01-28T06:06:27.452Z,10.43
2023-01-28T06:08:54.316Z,11.75
2023-01-28T06:11:21.268Z,10.75
2023-01-28T06:13:48.443Z,10.00
2023-01-28T06:16:15.451Z,11.38
2023-01-28T06:18:42.575Z,10.77
2023-01-28T06:21:09.363Z,10.98
2023-01-28T06:23:36.241Z,8.82
2023-01-28T06:26:03.438Z,11.23
2023-01-28T06:28:30.244Z,10.18
2023-01-28T06:30:57.103Z,12.10
2023-01-28T06:33:24.603Z,11.15
2023-01-28T06:35:51.549Z,11.20
2023-01-28T06:38:18.714Z,10.38
2023-01-28T06:40:45.493Z,9.88
2023-01-28T06:43:12.283Z,10.48
2023-01-28T06:45:39.213Z,10.07
2023-01-28T06:48:08.773Z,12.48
2023-01-28T06:50:35.704Z,13.55
2023-01-28T06:53:02.480Z,10.43
2023-01-28T06:55:29.245Z,9.55
2023-01-28T06:57:56.233Z,10.93
2023-01-28T07:00:23.229Z,10.95
2023-01-28T07:02:50.036Z,10.10
2023-01-28T07:05:17.308Z,10.00
2023-01-28T07:07:44.912Z,12.88
2023-01-28T07:10:11.973Z,9.57
2023-01-28T07:12:39.281Z,11.13
2023-01-28T07:15:07.182Z,10.65
2023-01-28T07:17:34.045Z,9.45
2023-01-28T07:20:00.856Z,10.25
2023-01-28T07:22:27.819Z,9.50
2023-01-28T07:24:54.656Z,9.05
2023-01-28T07:27:21.432Z,11.95
2023-01-28T07:29:48.181Z,10.98
2023-01-28T07:32:14.959Z,10.15
2023-01-28T07:34:43.263Z,10.60
2023-01-28T07:37:10.751Z,9.88
2023-01-28T07:39:37.551Z,11.32
2023-01-28T07:42:04.694Z,11.10
2023-01-28T07:44:31.486Z,12.10
2023-01-28T07:46:58.275Z,11.48
2023-01-28T07:49:25.367Z,12.50
2023-01-28T07:51:52.780Z,10.02
2023-01-28T07:54:19.818Z,10.38
2023-01-28T07:56:46.992Z,9.68
2023-01-28T07:59:13.783Z,10.30
2023-01-28T08:01:40.985Z,12.85
2023-01-28T08:04:07.887Z,10.95
2023-01-28T08:06:38.014Z,10.57
2023-01-28T08:09:09.041Z,11.82
2023-01-28T08:11:39.553Z,12.25
2023-01-28T08:14:06.850Z,9.88
2023-01-28T08:16:33.655Z,9.70
2023-01-28T08:19:00.433Z,10.43
2023-01-28T08:21:27.400Z,11.88
2023-01-28T08:23:55.017Z,11.32
2023-01-28T08:26:21.881Z,9.90
2023-01-28T08:28:50.617Z,9.43
2023-01-28T08:31:19.092Z,10.27
2023-01-28T08:33:45.993Z,11.15
2023-01-28T08:36:13.029Z,12.43
2023-01-28T08:38:39.824Z,13.18
2023-01-28T08:41:06.811Z,14.75
2023-01-28T08:43:33.712Z,14.25
2023-01-28T08:46:00.604Z,13.25
2023-01-28T08:48:27.528Z,10.25
2023-01-28T08:50:58.734Z,11.18
2023-01-28T08:53:25.704Z,15.02
2023-01-28T08:55:54.895Z,15.70
2023-01-28T08:58:22.050Z,20.25
2023-01-28T09:00:50.356Z,18.58
2023-01-28T09:03:18.232Z,18.35
2023-01-28T09:05:45.091Z,15.02
2023-01-28T09:08:15.335Z,13.60
2023-01-28T09:10:42.826Z,12.85
2023-01-28T09:13:15.693Z,12.25
2023-01-28T09:15:43.571Z,15.35
2023-01-28T09:18:10.663Z,12.35
2023-01-28T09:20:38.539Z,12.63
2023-01-28T09:23:05.469Z,12.20
2023-01-28T09:25:32.343Z,11.90
2023-01-28T09:27:59.509Z,12.65
2023-01-28T09:30:27.114Z,11.55
2023-01-28T09:32:56.728Z,13.43
2023-01-28T09:35:23.492Z,11.45
2023-01-28T09:37:52.086Z,13.60
2023-01-28T09:40:34.290Z,12.13
2023-01-28T09:43:29.284Z,15.13
2023-01-28T09:45:59.479Z,10.70
2023-01-28T09:48:38.278Z,14.98
2023-01-28T09:51:13.652Z,10.63
2023-01-28T09:53:47.310Z,12.40
2023-01-28T09:56:36.577Z,14.02
2023-01-28T09:59:36.183Z,14.32
2023-01-28T10:02:24.176Z,17.27
2023-01-28T10:04:59.524Z,13.95
2023-01-28T10:07:39.227Z,16.42
2023-01-28T10:10:45.925Z,13.23
2023-01-28T10:13:43.780Z,12.32
2023-01-28T10:16:23.986Z,10.48
2023-01-28T10:19:11.504Z,14.23
2023-01-28T10:22:13.100Z,11.63
2023-01-28T10:24:53.052Z,11.70
2023-01-28T10:27:24.389Z,11.10
2023-01-28T10:29:53.372Z,10.68
2023-01-28T10:32:27.099Z,11.25
2023-01-28T10:34:54.029Z,12.65
2023-01-28T10:37:21.705Z,13.05
2023-01-28T10:39:48.789Z,14.23
2023-01-28T10:42:31.949Z,21.73
2023-01-28T10:45:08.789Z,15.80
2023-01-28T10:47:45.317Z,10.60
2023-01-28T10:50:25.266Z,19.30
2023-01-28T10:53:01.419Z,18.45
2023-01-28T10:55:47.659Z,20.58
2023-01-28T10:58:24.460Z,16.23
2023-01-28T11:01:00.328Z,17.20
2023-01-28T11:03:28.056Z,13.15
2023-01-28T11:05:57.085Z,15.98
2023-01-28T11:08:27.988Z,14.82
2023-01-28T11:10:56.723Z,11.40
2023-01-28T11:13:29.820Z,9.25
2023-01-28T11:16:06.911Z,10.63
2023-01-28T11:18:46.625Z,11.48
2023-01-28T11:21:33.138Z,14.90
2023-01-28T11:24:05.131Z,10.82
2023-01-28T11:26:37.520Z,14.10
2023-01-28T11:29:05.268Z,14.63
2023-01-28T11:31:44.396Z,12.70
2023-01-28T11:34:19.241Z,13.95
2023-01-28T11:37:06.005Z,16.98
2023-01-28T11:39:32.869Z,17.63
2023-01-28T11:42:22.829Z,14.40
2023-01-28T11:44:50.343Z,15.35
2023-01-28T11:47:35.430Z,10.80
2023-01-28T11:50:39.386Z,11.60
2023-01-28T11:53:32.772Z,13.02
2023-01-28T11:56:25.597Z,16.73
2023-01-28T11:59:13.804Z,15.73
2023-01-28T12:01:57.795Z,15.15
2023-01-28T12:05:01.414Z,13.88
2023-01-28T12:07:52.433Z,15.85
2023-01-28T12:10:36.800Z,14.77
2023-01-28T12:13:21.836Z,12.77
2023-01-28T12:16:18.932Z,12.65
2023-01-28T12:19:43.204Z,12.18
2023-01-28T12:22:35.425Z,11.50
2023-01-28T12:25:23.528Z,18.08
2023-01-28T12:27:56.049Z,16.13
2023-01-28T12:31:02.233Z,13.27
2023-01-28T12:33:31.684Z,12.25
2023-01-28T12:36:26.184Z,21.23
2023-01-28T12:39:16.592Z,14.82
2023-01-28T12:41:54.428Z,16.05
2023-01-28T12:44:35.359Z,14.15
2023-01-28T12:47:17.077Z,22.67
2023-01-28T12:50:12.418Z,18.38
2023-01-28T12:52:56.153Z,18.25
2023-01-28T12:55:44.557Z,15.80
2023-01-28T12:58:45.737Z,17.55
2023-01-28T13:01:21.080Z,18.75
2023-01-28T13:04:35.062Z,16.95
2023-01-28T13:07:15.965Z,15.25
2023-01-28T13:09:53.740Z,19.42
2023-01-28T13:12:22.337Z,18.45
2023-01-28T13:14:53.228Z,24.45
2023-01-28T13:17:32.723Z,14.68
2023-01-28T13:20:00.347Z,27.80
2023-01-28T13:22:36.825Z,34.97
2023-01-28T13:25:36.369Z,67.40
2023-01-28T13:28:07.034Z,95.25
2023-01-28T13:30:47.824Z,83.68
2023-01-28T13:33:32.284Z,63.90
2023-01-28T13:36:25.195Z,47.07
2023-01-28T13:39:14.502Z,52.55
2023-01-28T13:41:47.832Z,46.33
2023-01-28T13:44:34.396Z,42.30
2023-01-28T13:47:39.844Z,35.72
2023-01-28T13:50:16.240Z,25.30
2023-01-28T13:52:56.735Z,31.85
2023-01-28T13:55:43.508Z,22.60
2023-01-28T13:58:58.476Z,20.65
2023-01-28T14:01:43.472Z,19.23
2023-01-28T14:04:59.721Z,16.48
2023-01-28T14:08:06.267Z,21.58
2023-01-28T14:10:56.877Z,25.73
2023-01-28T14:13:56.813Z,24.40
2023-01-28T14:17:10.091Z,23.13
2023-01-28T14:19:38.739Z,17.45
2023-01-28T14:22:10.729Z,20.08
2023-01-28T14:24:39.822Z,17.63
2023-01-28T14:27:36.073Z,25.27
2023-01-28T14:30:16.917Z,22.08
2023-01-28T14:32:50.616Z,21.00
2023-01-28T14:35:32.113Z,27.25
2023-01-28T14:38:00.935Z,26.42
2023-01-28T14:40:29.592Z,24.40
2023-01-28T14:42:56.616Z,23.02
2023-01-28T14:45:42.814Z,19.30
2023-01-28T14:48:23.340Z,23.58
2023-01-28T14:51:16.569Z,28.63
2023-01-28T14:54:27.096Z,29.48
2023-01-28T14:57:19.607Z,24.13
2023-01-28T14:59:54.889Z,21.80
2023-01-28T15:02:26.792Z,18.83
2023-01-28T15:04:54.786Z,19.65
2023-01-28T15:07:28.267Z,20.52
2023-01-28T15:10:31.733Z,23.00
2023-01-28T15:13:05.234Z,20.52
2023-01-28T15:15:39.881Z,16.20
2023-01-28T15:18:23.329Z,20.38
2023-01-28T15:20:55.664Z,19.02
2023-01-28T15:23:29.591Z,18.95
2023-01-28T15:25:57.193Z,19.08
2023-01-28T15:28:31.987Z,19.48
2023-01-28T15:30:59.966Z,29.40
2023-01-28T15:33:27.413Z,20.30
2023-01-28T15:35:57.280Z,17.27
2023-01-28T15:38:28.167Z,24.02
2023-01-28T15:41:03.069Z,18.65
2023-01-28T15:46:04.077Z,20.13
2023-01-28T15:48:34.441Z,18.75
2023-01-28T15:51:19.045Z,15.85
2023-01-28T15:53:50.291Z,13.98
2023-01-28T15:56:27.956Z,19.17
2023-01-28T15:58:56.305Z,15.48
2023-01-28T16:01:24.180Z,17.90
2023-01-28T16:04:07.123Z,19.85
2023-01-28T16:06:39.556Z,16.95
2023-01-28T16:09:26.000Z,18.58
2023-01-28T16:11:53.361Z,15.15
2023-01-28T16:14:29.911Z,17.13
2023-01-28T16:16:57.845Z,19.42
2023-01-28T16:20:01.134Z,16.95
2023-01-28T16:22:43.671Z,15.10
2023-01-28T16:25:31.672Z,13.77
2023-01-28T16:28:00.358Z,19.75
2023-01-28T16:30:28.041Z,14.25
2023-01-28T16:32:58.565Z,14.23
2023-01-28T16:35:42.546Z,14.60
2023-01-28T16:38:18.821Z,15.45
2023-01-28T16:40:47.300Z,15.52
2023-01-28T16:43:15.980Z,12.98
2023-01-28T16:45:43.400Z,15.52
2023-01-28T16:48:10.211Z,14.70
2023-01-28T16:50:40.614Z,19.52
2023-01-28T16:53:19.981Z,29.13
2023-01-28T16:55:50.821Z,16.27
2023-01-28T16:58:23.765Z,19.38
2023-01-28T17:00:50.663Z,19.52
2023-01-28T17:03:17.498Z,23.20
2023-01-28T17:05:44.596Z,22.83
2023-01-28T17:08:11.461Z,23.45
2023-01-28T17:10:38.290Z,17.95
2023-01-28T17:13:05.183Z,17.17
2023-01-28T17:15:32.051Z,15.48
2023-01-28T17:17:58.981Z,16.00
2023-01-28T17:20:26.235Z,12.40
2023-01-28T17:22:52.997Z,13.43
2023-01-28T17:25:20.579Z,11.80
2023-01-28T17:27:50.352Z,17.20
2023-01-28T17:30:20.596Z,19.02
2023-01-28T17:32:47.473Z,18.48
2023-01-28T17:35:15.863Z,15.27
2023-01-28T17:37:43.171Z,13.50
2023-01-28T17:40:12.895Z,12.80
2023-01-28T17:42:39.992Z,10.43
2023-01-28T17:45:07.305Z,10.60
2023-01-28T17:47:34.101Z,11.20
2023-01-28T17:50:00.924Z,9.43
2023-01-28T17:52:27.699Z,9.38
2023-01-28T17:54:54.505Z,14.70
2023-01-28T17:57:21.466Z,26.15
2023-01-28T17:59:48.285Z,29.58
2023-01-28T18:02:15.479Z,26.88
2023-01-28T18:04:43.647Z,21.20
2023-01-28T18:07:11.323Z,22.10
2023-01-28T18:09:43.737Z,18.30
2023-01-28T18:12:14.620Z,19.15
2023-01-28T18:14:42.313Z,17.55
2023-01-28T18:17:09.265Z,16.83
2023-01-28T18:19:36.394Z,15.63
2023-01-28T18:22:03.229Z,13.68
2023-01-28T18:24:30.918Z,11.63
2023-01-28T18:27:00.152Z,14.25
2023-01-28T18:29:29.585Z,17.13
2023-01-28T18:31:58.153Z,19.23
2023-01-28T18:34:28.253Z,19.02
2023-01-28T18:36:57.332Z,15.65
2023-01-28T18:39:26.475Z,16.20
2023-01-28T18:41:57.063Z,18.00
2023-01-28T18:44:25.671Z,14.88
2023-01-28T18:46:54.224Z,18.25
2023-01-28T18:49:21.335Z,11.98
2023-01-28T18:51:48.251Z,15.88
2023-01-28T18:54:16.135Z,10.98
2023-01-28T18:56:44.559Z,13.52
2023-01-28T18:59:14.140Z,10.23
2023-01-28T19:01:48.148Z,11.75
2023-01-28T19:04:15.893Z,8.63
2023-01-28T19:06:43.289Z,9.40
2023-01-28T19:09:13.093Z,11.15
2023-01-28T19:11:41.675Z,9.75
2023-01-28T19:14:14.387Z,9.85
2023-01-28T19:16:41.501Z,10.30
2023-01-28T19:19:08.599Z,13.23
2023-01-28T19:21:35.880Z,9.43
2023-01-28T19:24:09.895Z,10.32
2023-01-28T19:26:38.163Z,9.10
2023-01-28T19:29:10.439Z,11.98
2023-01-28T19:31:38.550Z,8.82
2023-01-28T19:34:06.272Z,9.18
2023-01-28T19:36:34.416Z,6.45
2023-01-28T19:39:08.240Z,8.13
2023-01-28T19:41:36.984Z,9.63
2023-01-28T19:44:05.195Z,8.68
2023-01-28T19:46:33.716Z,10.70
2023-01-28T19:49:00.597Z,8.13
2023-01-28T19:51:27.876Z,6.32
2023-01-28T19:53:55.586Z,8.90
2023-01-28T19:56:25.490Z,7.20
2023-01-28T19:58:54.418Z,7.35
2023-01-28T20:01:29.889Z,8.00
2023-01-28T20:04:00.380Z,7.70
2023-01-28T20:06:30.195Z,8.95
2023-01-28T20:09:07.851Z,13.73
2023-01-28T20:11:36.027Z,12.95
2023-01-28T20:14:02.878Z,9.55
2023-01-28T20:16:33.263Z,6.53
2023-01-28T20:19:04.040Z,9.80
2023-01-28T20:21:32.039Z,7.47
2023-01-28T20:24:01.516Z,8.38
2023-01-28T20:26:32.058Z,9.05
2023-01-28T20:29:13.631Z,7.63
2023-01-28T20:31:42.509Z,8.90
2023-01-28T20:34:16.263Z,7.03
2023-01-28T20:36:43.825Z,6.20
2023-01-28T20:39:10.967Z,8.27
2023-01-28T20:41:38.092Z,7.65
2023-01-28T20:44:05.168Z,7.82
2023-01-28T20:46:33.570Z,5.90
2023-01-28T20:49:03.177Z,7.13
2023-01-28T20:51:34.566Z,7.75
2023-01-28T20:54:02.535Z,9.98
2023-01-28T20:56:33.196Z,10.90
2023-01-28T20:59:06.001Z,11.35
2023-01-28T21:01:36.148Z,11.63
2023-01-28T21:04:07.283Z,9.07
2023-01-28T21:06:37.823Z,6.90
2023-01-28T21:09:05.890Z,6.55
2023-01-28T21:11:32.845Z,9.63
2023-01-28T21:13:59.644Z,6.40
2023-01-28T21:16:27.260Z,7.97
2023-01-28T21:18:54.186Z,8.85
2023-01-28T21:21:29.508Z,7.65
2023-01-28T21:24:00.432Z,15.82
2023-01-28T21:26:28.295Z,11.75
2023-01-28T21:28:56.444Z,14.98
2023-01-28T21:31:25.656Z,12.20
2023-01-28T21:33:55.355Z,8.43
2023-01-28T21:36:22.968Z,8.90
2023-01-28T21:38:58.637Z,7.45
2023-01-28T21:41:25.802Z,8.18
2023-01-28T21:43:54.351Z,6.65
2023-01-28T21:46:22.510Z,8.95
2023-01-28T21:48:49.752Z,8.50
2023-01-28T21:51:34.977Z,7.95
2023-01-28T21:54:03.665Z,7.35
2023-01-28T21:56:30.452Z,6.90
2023-01-28T21:59:16.327Z,5.30
2023-01-28T22:01:45.044Z,7.10
2023-01-28T22:04:12.970Z,8.82
2023-01-28T22:06:42.293Z,6.63
2023-01-28T22:09:14.127Z,7.43
2023-01-28T22:11:43.542Z,7.40
2023-01-28T22:14:10.954Z,8.23
2023-01-28T22:16:38.052Z,10.15
2023-01-28T22:19:05.741Z,6.55
2023-01-28T22:21:33.031Z,6.40
2023-01-28T22:23:59.868Z,4.80
2023-01-28T22:26:26.834Z,4.40
2023-01-28T22:28:53.628Z,6.60
2023-01-28T22:31:20.653Z,4.30
2023-01-28T22:33:47.599Z,5.82
2023-01-28T22:36:16.691Z,5.78
2023-01-28T22:38:45.732Z,4.45
2023-01-28T22:41:19.849Z,6.68
2023-01-28T22:43:47.332Z,7.83
2023-01-28T22:46:15.088Z,6.20
2023-01-28T22:48:42.127Z,7.05
2023-01-28T22:51:17.321Z,5.55
2023-01-28T22:53:45.031Z,7.35
2023-01-28T22:56:12.339Z,5.38
2023-01-28T22:58:39.386Z,6.45
2023-01-28T23:01:07.249Z,5.63
2023-01-28T23:03:35.217Z,6.07
2023-01-28T23:06:04.697Z,5.68
2023-01-28T23:08:32.731Z,6.30
2023-01-28T23:11:02.563Z,9.75
2023-01-28T23:13:53.577Z,10.10
2023-01-28T23:16:38.912Z,5.72
2023-01-28T23:22:09.534Z,8.13
2023-01-28T23:27:04.079Z,6.75
2023-01-28T23:29:32.110Z,6.68
2023-01-28T23:32:09.991Z,6.82
2023-01-28T23:34:40.785Z,7.35
2023-01-28T23:37:10.665Z,8.35
2023-01-28T23:39:37.446Z,8.73
2023-01-28T23:42:18.859Z,8.45
2023-01-28T23:44:45.749Z,8.13
2023-01-28T23:47:12.851Z,6.35
2023-01-28T23:49:40.622Z,6.57
2023-01-28T23:52:08.355Z,6.15
2023-01-28T23:54:35.972Z,9.35
2023-01-28T23:57:04.153Z,12.27
2023-01-28T23:59:31.053Z,5.47
